Time;durP1;ratioP1;P1;durP2;ratioP2;P2;SDS_P1;SDS_P2;PMS_P1;PMS_P2;Temp;Humidity;BMP_temperature;BMP_pressure;BME280_temperature;BME280_humidity;BME280_pressure;Samples;Min_cycle;Max_cycle;Signal;HPM_P1;HPM_P2
2022/01/17 00:00:37;;;;;;;17.50;9.10;;;5.70;78.20;;;;;;5051253;28;20499;-56
2022/01/17 00:03:04;;;;;;;13.43;9.27;;;5.70;88.70;;;;;;5051957;28;20489;-57
2022/01/17 00:05:31;;;;;;;15.57;8.73;;;5.70;92.00;;;;;;5052704;28;20489;-57
2022/01/17 00:07:58;;;;;;;15.37;8.73;;;5.70;93.30;;;;;;5050758;28;20577;-56
2022/01/17 00:10:24;;;;;;;17.33;8.83;;;5.70;99.30;;;;;;5048402;28;20485;-56
2022/01/17 00:12:57;;;;;;;14.67;9.13;;;5.70;99.90;;;;;;5049592;28;21099;-56
2022/01/17 00:15:28;;;;;;;13.97;8.70;;;5.80;99.90;;;;;;5048856;28;20450;-57
2022/01/17 00:18:20;;;;;;;13.50;8.37;;;5.80;99.90;;;;;;5045898;28;20477;-57
2022/01/17 00:20:46;;;;;;;15.13;7.17;;;5.80;99.90;;;;;;5051297;28;20454;-56
2022/01/17 00:23:12;;;;;;;11.47;7.40;;;5.80;99.90;;;;;;5052228;28;20512;-56
2022/01/17 00:25:39;;;;;;;18.70;8.70;;;5.80;99.90;;;;;;5053066;28;20536;-56
2022/01/17 00:28:07;;;;;;;14.03;7.90;;;5.90;1.40;;;;;;5050105;28;20589;-56
2022/01/17 00:30:34;;;;;;;14.00;6.70;;;5.90;99.90;;;;;;5046860;28;20544;-56
2022/01/17 00:33:00;;;;;;;13.57;7.53;;;5.90;99.90;;;;;;5049464;28;20902;-57
2022/01/17 00:35:27;;;;;;;11.83;7.17;;;6.00;99.90;;;;;;5051722;28;20500;-56
2022/01/17 00:37:53;;;;;;;15.83;6.80;;;5.90;99.90;;;;;;5053103;28;20458;-58
2022/01/17 00:40:20;;;;;;;10.47;6.00;;;5.90;99.90;;;;;;5044483;28;20552;-56
2022/01/17 00:42:47;;;;;;;15.70;7.40;;;5.90;99.90;;;;;;5042623;28;20459;-56
2022/01/17 00:45:15;;;;;;;12.07;7.13;;;6.00;99.90;;;;;;5043140;28;20508;-56
2022/01/17 00:47:42;;;;;;;10.13;5.43;;;6.00;99.90;;;;;;5048909;28;20485;-56
2022/01/17 00:50:10;;;;;;;9.70;6.07;;;6.00;99.90;;;;;;5051191;28;20493;-56
2022/01/17 00:52:36;;;;;;;12.60;6.20;;;6.00;99.90;;;;;;5040716;28;20553;-57
2022/01/17 00:55:03;;;;;;;10.07;5.13;;;6.00;99.90;;;;;;5047133;28;20593;-55
2022/01/17 00:57:30;;;;;;;12.30;5.90;;;6.00;99.90;;;;;;5043127;28;20900;-54
2022/01/17 00:59:56;;;;;;;10.53;5.50;;;6.00;99.90;;;;;;5044667;28;21015;-56
2022/01/17 01:02:24;;;;;;;9.33;5.63;;;6.00;99.90;;;;;;5047143;28;20564;-56
2022/01/17 01:04:51;;;;;;;17.03;7.20;;;6.00;99.90;;;;;;5051102;28;20978;-55
2022/01/17 01:07:17;;;;;;;14.10;5.50;;;6.10;99.90;;;;;;5049330;28;20584;-56
2022/01/17 01:09:53;;;;;;;12.20;5.33;;;6.00;99.90;;;;;;5036763;28;20538;-57
2022/01/17 01:12:20;;;;;;;7.27;4.70;;;6.00;99.90;;;;;;5048325;28;20553;-56
2022/01/17 01:14:46;;;;;;;7.10;4.60;;;6.10;99.90;;;;;;5048518;28;20970;-57
2022/01/17 01:17:30;;;;;;;11.00;5.30;;;6.10;99.90;;;;;;5049553;28;20558;-57
2022/01/17 01:20:08;;;;;;;9.27;4.73;;;6.10;99.90;;;;;;5052728;28;20446;-56
2022/01/17 01:28:11;;;;;;;5.50;2.90;;;6.00;99.90;;;;;;5041694;28;21065;-56
2022/01/17 01:30:41;;;;;;;4.37;3.40;;;6.10;99.90;;;;;;5041160;28;20519;-60
2022/01/17 01:33:08;;;;;;;6.50;2.97;;;6.00;99.90;;;;;;5044756;28;20466;-56
2022/01/17 01:35:44;;;;;;;8.13;3.17;;;6.00;99.90;;;;;;5049020;28;20466;-57
2022/01/17 01:38:11;;;;;;;10.57;3.70;;;5.90;26.50;;;;;;5048284;28;20458;-57
2022/01/17 01:40:37;;;;;;;7.40;2.67;;;5.90;45.00;;;;;;5044284;28;20506;-56
2022/01/17 01:43:04;;;;;;;4.93;2.53;;;5.90;43.70;;;;;;5051302;28;20484;-56
2022/01/17 01:45:30;;;;;;;9.07;3.23;;;5.80;42.60;;;;;;5041487;28;20485;-57
2022/01/17 01:47:57;;;;;;;8.90;2.53;;;5.70;43.30;;;;;;5047284;28;20513;-57
2022/01/17 01:50:24;;;;;;;9.90;2.33;;;5.70;53.00;;;;;;5049537;28;20493;-56
2022/01/17 01:52:52;;;;;;;8.67;2.53;;;5.70;50.50;;;;;;5043243;28;20466;-57
2022/01/17 01:55:21;;;;;;;9.20;2.43;;;5.70;64.30;;;;;;5050222;28;21030;-56
2022/01/17 01:57:48;;;;;;;9.43;2.47;;;5.70;75.20;;;;;;5039424;28;20485;-56
2022/01/17 02:00:17;;;;;;;17.83;3.90;;;5.80;95.10;;;;;;5048885;28;20458;-57
2022/01/17 02:02:44;;;;;;;6.33;1.90;;;5.80;89.70;;;;;;5049901;28;20492;-57
2022/01/17 02:05:12;;;;;;;8.47;2.20;;;5.70;80.40;;;;;;5045220;28;20548;-57
2022/01/17 02:07:39;;;;;;;17.20;3.87;;;5.70;92.60;;;;;;5041845;28;20564;-56
2022/01/17 02:10:07;;;;;;;8.20;2.60;;;5.70;97.40;;;;;;5048571;28;20494;-58
2022/01/17 02:12:34;;;;;;;6.87;2.00;;;5.70;99.90;;;;;;5050808;28;20589;-56
2022/01/17 02:15:01;;;;;;;8.20;4.10;;;5.80;99.90;;;;;;5048616;28;22407;-57
2022/01/17 02:17:30;;;;;;;9.23;2.50;;;5.80;99.90;;;;;;5048667;28;20473;-56
2022/01/17 02:20:05;;;;;;;11.33;2.47;;;5.70;99.90;;;;;;5050247;28;20468;-56
2022/01/17 02:22:31;;;;;;;8.23;2.30;;;5.80;99.90;;;;;;5044813;28;20818;-56
2022/01/17 02:24:58;;;;;;;9.30;2.33;;;5.80;99.90;;;;;;5042098;28;20560;-56
2022/01/17 02:27:25;;;;;;;9.70;2.27;;;5.70;99.90;;;;;;5038771;28;20516;-57
2022/01/17 02:29:52;;;;;;;7.47;2.47;;;5.70;99.90;;;;;;5047269;28;20531;-56
2022/01/17 02:32:19;;;;;;;7.60;2.17;;;5.70;99.90;;;;;;5045479;28;20549;-56
2022/01/17 02:34:45;;;;;;;8.77;2.63;;;5.80;99.90;;;;;;5048740;28;21237;-57
2022/01/17 02:37:15;;;;;;;9.87;2.50;;;5.70;99.90;;;;;;5049725;28;20532;-56
2022/01/17 02:39:41;;;;;;;6.67;2.43;;;5.80;99.90;;;;;;5044225;28;20462;-55
2022/01/17 02:42:08;;;;;;;7.50;2.10;;;5.80;99.90;;;;;;5042325;28;20513;-56
2022/01/17 02:44:43;;;;;;;9.30;2.80;;;5.80;99.90;;;;;;5044169;28;20468;-56
2022/01/17 02:47:10;;;;;;;9.00;2.97;;;5.80;99.90;;;;;;5046052;28;20481;-56
2022/01/17 02:49:36;;;;;;;7.47;2.80;;;5.80;99.90;;;;;;5043927;28;20957;-56
2022/01/17 02:52:04;;;;;;;5.70;2.30;;;5.80;99.90;;;;;;5044260;28;20473;-56
2022/01/17 02:54:31;;;;;;;9.30;2.87;;;5.80;99.90;;;;;;5045837;28;20485;-55
2022/01/17 02:56:58;;;;;;;10.80;1.77;;;5.80;99.90;;;;;;5045097;28;20526;-56
2022/01/17 02:59:25;;;;;;;5.70;1.87;;;5.90;99.90;;;;;;5044979;28;20852;-57
2022/01/17 03:01:51;;;;;;;6.63;2.37;;;5.80;99.90;;;;;;5041036;28;20493;-56
2022/01/17 03:04:18;;;;;;;11.53;1.80;;;5.80;99.90;;;;;;5039100;28;20490;-56
2022/01/17 03:06:44;;;;;;;8.50;2.23;;;5.90;99.90;;;;;;5040356;28;20505;-56
2022/01/17 03:09:11;;;;;;;16.40;3.37;;;5.80;99.90;;;;;;5045487;28;20944;-56
2022/01/17 03:11:38;;;;;;;13.40;3.00;;;5.80;99.90;;;;;;5048316;28;20499;-56
2022/01/17 03:14:05;;;;;;;8.43;2.47;;;5.90;99.90;;;;;;5046317;28;20560;-56
2022/01/17 03:16:34;;;;;;;14.47;3.40;;;5.80;99.90;;;;;;5050043;28;20994;-57
2022/01/17 03:19:01;;;;;;;7.13;2.30;;;5.90;99.90;;;;;;5053980;28;20542;-56
2022/01/17 03:21:32;;;;;;;10.17;2.70;;;5.80;99.90;;;;;;5053271;28;20485;-56
2022/01/17 03:23:58;;;;;;;16.50;3.40;;;5.80;99.90;;;;;;5053091;28;20458;-56
2022/01/17 03:26:29;;;;;;;6.20;2.23;;;5.80;99.90;;;;;;5052048;28;20485;-57
2022/01/17 03:28:57;;;;;;;7.67;2.20;;;5.80;99.90;;;;;;5050666;28;20576;-56
2022/01/17 03:31:24;;;;;;;10.00;2.73;;;5.80;99.90;;;;;;5044931;28;20482;-56
2022/01/17 03:33:50;;;;;;;8.97;2.60;;;5.80;99.90;;;;;;5048823;28;20894;-56
2022/01/17 03:36:17;;;;;;;12.33;2.90;;;5.80;99.90;;;;;;5045160;28;20512;-57
2022/01/17 03:38:44;;;;;;;8.67;2.50;;;5.80;99.90;;;;;;5053988;28;20899;-55
2022/01/17 03:41:13;;;;;;;10.17;2.33;;;5.80;99.90;;;;;;5054201;28;20481;-56
2022/01/17 03:43:40;;;;;;;5.70;2.33;;;5.90;99.90;;;;;;5050703;28;20535;-56
2022/01/17 03:46:08;;;;;;;2.30;1.47;;;5.90;99.90;;;;;;5046835;28;20520;-57
2022/01/17 03:48:35;;;;;;;18.77;2.80;;;5.90;99.90;;;;;;5052174;28;20556;-57
2022/01/17 03:51:02;;;;;;;7.53;2.17;;;5.90;99.90;;;;;;5053334;28;20489;-56
2022/01/17 03:53:30;;;;;;;16.87;3.07;;;5.80;99.90;;;;;;5050109;28;20469;-56
2022/01/17 03:55:57;;;;;;;7.97;2.43;;;5.80;99.90;;;;;;5040794;28;20902;-57
2022/01/17 03:58:25;;;;;;;11.43;2.80;;;5.80;99.90;;;;;;5042171;28;20542;-56
2022/01/17 04:00:55;;;;;;;7.77;2.63;;;5.80;99.90;;;;;;5050814;28;20462;-57
2022/01/17 04:03:23;;;;;;;8.40;3.07;;;5.80;99.90;;;;;;5052712;28;20466;-57
2022/01/17 04:05:50;;;;;;;15.03;3.30;;;5.80;99.90;;;;;;5045364;28;20497;-57
2022/01/17 04:08:17;;;;;;;10.93;3.00;;;5.80;99.90;;;;;;5052179;28;20528;-56
2022/01/17 04:10:44;;;;;;;11.37;3.30;;;5.80;99.90;;;;;;5051790;28;20493;-57
2022/01/17 04:13:10;;;;;;;8.93;2.23;;;5.80;99.90;;;;;;5053522;28;20867;-56
2022/01/17 04:15:38;;;;;;;11.57;2.60;;;5.80;99.90;;;;;;5051888;28;20490;-57
2022/01/17 04:18:05;;;;;;;10.00;2.20;;;5.80;99.90;;;;;;5050287;28;20524;-57
2022/01/17 04:20:34;;;;;;;4.87;2.30;;;5.80;92.40;;;;;;5048724;28;20470;-56
2022/01/17 04:23:06;;;;;;;11.27;2.70;;;5.70;72.40;;;;;;5052030;28;20887;-57
2022/01/17 04:25:34;;;;;;;9.70;2.67;;;5.70;76.20;;;;;;5049681;28;20457;-57
2022/01/17 04:28:03;;;;;;;11.43;2.80;;;5.70;76.40;;;;;;5050249;28;20494;-57
2022/01/17 04:30:30;;;;;;;12.30;2.47;;;5.70;72.30;;;;;;5048784;28;20497;-57
2022/01/17 04:32:57;;;;;;;7.83;2.03;;;5.70;65.10;;;;;;5047000;28;20919;-57
2022/01/17 04:35:25;;;;;;;12.80;3.20;;;5.70;63.50;;;;;;5051652;28;20485;-56
2022/01/17 04:37:55;;;;;;;7.57;2.80;;;5.60;59.40;;;;;;5045186;28;20539;-56
2022/01/17 04:40:23;;;;;;;5.70;2.10;;;5.60;50.60;;;;;;5044406;28;20462;-57
2022/01/17 04:42:53;;;;;;;10.80;2.33;;;5.60;41.00;;;;;;5044549;28;20486;-56
2022/01/17 04:45:21;;;;;;;12.93;2.70;;;5.60;41.30;;;;;;5042279;28;20464;-57
2022/01/17 04:47:49;;;;;;;9.00;2.40;;;5.60;36.60;;;;;;5047929;28;20520;-57
2022/01/17 04:50:18;;;;;;;15.73;2.70;;;5.60;44.30;;;;;;5052944;28;20890;-57
2022/01/17 04:52:46;;;;;;;17.90;3.40;;;5.60;31.80;;;;;;5045338;28;20545;-57
2022/01/17 04:55:16;;;;;;;8.23;2.00;;;5.60;99.90;;;;;;5045277;28;20462;-57
2022/01/17 04:57:44;;;;;;;10.60;5.20;;;5.60;75.60;;;;;;5048560;28;20489;-57
2022/01/17 05:00:13;;;;;;;11.03;2.87;;;5.60;99.90;;;;;;5049046;28;20489;-56
2022/01/17 05:02:40;;;;;;;7.10;2.20;;;5.60;99.90;;;;;;5050685;28;20497;-56
2022/01/17 05:05:07;;;;;;;11.40;2.93;;;5.50;99.90;;;;;;5041999;28;20458;-56
2022/01/17 05:07:35;;;;;;;11.03;3.70;;;5.50;99.90;;;;;;5051680;28;20498;-56
2022/01/17 05:10:03;;;;;;;8.73;2.67;;;5.50;99.90;;;;;;5049827;28;20990;-57
2022/01/17 05:12:32;;;;;;;13.43;3.20;;;5.50;99.90;;;;;;5044206;28;20549;-56
2022/01/17 05:14:59;;;;;;;12.50;3.13;;;5.40;99.90;;;;;;5046785;28;20454;-57
2022/01/17 05:17:55;;;;;;;8.33;2.20;;;5.50;99.90;;;;;;5051713;28;20513;-57
2022/01/17 05:20:22;;;;;;;8.67;2.90;;;5.50;99.90;;;;;;5048589;28;20489;-56
2022/01/17 05:22:49;;;;;;;9.07;2.60;;;5.60;99.90;;;;;;5045504;28;20493;-56
2022/01/17 05:25:16;;;;;;;13.43;3.17;;;5.60;84.20;;;;;;5044170;28;20489;-56
2022/01/17 05:27:44;;;;;;;9.73;2.70;;;5.70;74.10;;;;;;5048201;28;20497;-57
2022/01/17 05:30:14;;;;;;;10.80;2.80;;;5.70;32.30;;;;;;5051238;28;21074;-56
2022/01/17 05:32:41;;;;;;;25.73;3.10;;;5.70;37.10;;;;;;5048133;28;20519;-56
2022/01/17 05:35:09;;;;;;;12.73;3.10;;;5.80;43.90;;;;;;5055209;28;20489;-56
2022/01/17 05:37:36;;;;;;;7.63;1.90;;;5.80;40.70;;;;;;5043426;28;20521;-56
2022/01/17 05:40:04;;;;;;;10.60;2.90;;;5.80;30.30;;;;;;5047448;28;20486;-56
2022/01/17 05:42:31;;;;;;;8.53;1.83;;;5.80;29.70;;;;;;5050203;28;20486;-57
2022/01/17 05:44:59;;;;;;;7.70;3.07;;;5.80;34.30;;;;;;5044798;28;21045;-56
2022/01/17 05:47:26;;;;;;;13.90;3.10;;;5.80;35.00;;;;;;5046383;28;20509;-56
2022/01/17 05:49:52;;;;;;;14.93;2.63;;;5.90;33.60;;;;;;5044232;28;20479;-56
2022/01/17 05:52:19;;;;;;;11.70;2.67;;;5.80;30.50;;;;;;5042582;28;20485;-57
2022/01/17 05:54:46;;;;;;;7.57;2.40;;;5.80;30.60;;;;;;5049029;28;20461;-56
2022/01/17 05:57:13;;;;;;;15.00;2.57;;;5.80;73.60;;;;;;5046863;28;20529;-56
2022/01/17 05:59:40;;;;;;;7.30;2.47;;;5.90;23.00;;;;;;5040293;28;20507;-56
2022/01/17 06:02:08;;;;;;;5.73;2.43;;;5.90;29.60;;;;;;5039278;28;20489;-55
2022/01/17 06:04:35;;;;;;;10.67;2.17;;;5.90;31.70;;;;;;5040665;28;20528;-55
2022/01/17 06:07:01;;;;;;;6.83;2.17;;;5.90;28.70;;;;;;5041439;28;20510;-56
2022/01/17 06:09:28;;;;;;;10.23;3.20;;;5.90;99.90;;;;;;5041237;28;20524;-56
2022/01/17 06:11:54;;;;;;;14.50;3.10;;;5.90;97.20;;;;;;5045717;28;20482;-55
2022/01/17 06:14:21;;;;;;;11.47;2.27;;;5.90;99.90;;;;;;5049473;28;20562;-56
2022/01/17 06:16:49;;;;;;;4.37;2.13;;;5.80;99.90;;;;;;5045203;28;20983;-57
2022/01/17 06:19:18;;;;;;;5.80;1.90;;;5.80;99.90;;;;;;5046914;28;20493;-55
2022/01/17 06:21:45;;;;;;;8.80;2.43;;;5.80;99.90;;;;;;5050047;28;20489;-56
2022/01/17 06:24:12;;;;;;;6.07;2.33;;;5.90;99.90;;;;;;5049145;28;20489;-57
2022/01/17 06:26:39;;;;;;;10.00;2.30;;;5.70;99.90;;;;;;5037813;28;20520;-57
2022/01/17 06:29:07;;;;;;;7.23;2.13;;;5.70;99.90;;;;;;5042635;28;20482;-57
2022/01/17 06:31:35;;;;;;;6.63;2.13;;;5.60;99.90;;;;;;5045133;28;20537;-55
2022/01/17 06:34:02;;;;;;;5.00;1.70;;;5.60;99.90;;;;;;5046669;28;20905;-56
2022/01/17 06:36:30;;;;;;;4.63;1.90;;;5.60;99.90;;;;;;5048898;28;20911;-56
2022/01/17 06:38:57;;;;;;;5.80;2.47;;;5.50;99.90;;;;;;5040573;28;20960;-57
2022/01/17 06:41:24;;;;;;;2.90;1.83;;;5.40;80.80;;;;;;5039460;28;20497;-56
2022/01/17 06:43:50;;;;;;;9.87;2.13;;;5.40;57.50;;;;;;5050638;28;20481;-56
2022/01/17 06:46:17;;;;;;;6.20;2.03;;;5.40;52.70;;;;;;5051908;28;21030;-56
2022/01/17 06:48:46;;;;;;;4.17;2.03;;;5.30;42.30;;;;;;5053362;28;20528;-55
2022/01/17 06:51:13;;;;;;;3.30;1.40;;;5.30;83.00;;;;;;5052078;28;20470;-55
2022/01/17 06:53:41;;;;;;;5.70;2.00;;;5.20;99.90;;;;;;5050832;28;20485;-56
2022/01/17 06:56:08;;;;;;;4.23;1.60;;;5.30;99.90;;;;;;5042450;28;21042;-56
2022/01/17 06:58:36;;;;;;;4.63;1.80;;;5.20;99.90;;;;;;5049810;28;21004;-57
2022/01/17 07:01:02;;;;;;;11.03;2.43;;;5.20;99.90;;;;;;5050870;28;20466;-56
2022/01/17 07:03:29;;;;;;;2.97;1.23;;;5.30;99.90;;;;;;5052879;28;20461;-57
2022/01/17 07:05:55;;;;;;;3.00;1.37;;;5.30;99.90;;;;;;5052046;28;20543;-57
2022/01/17 07:08:22;;;;;;;5.40;2.20;;;5.20;99.90;;;;;;5045491;28;20489;-56
2022/01/17 07:10:50;;;;;;;6.17;2.50;;;5.20;99.90;;;;;;5051620;28;20496;-56
2022/01/17 07:13:16;;;;;;;6.60;1.90;;;5.30;99.90;;;;;;5050174;28;20497;-57
2022/01/17 07:15:44;;;;;;;6.07;2.00;;;5.40;99.90;;;;;;5038834;28;20503;-57
2022/01/17 07:18:12;;;;;;;4.40;1.63;;;5.30;99.90;;;;;;5048390;28;20504;-56
2022/01/17 07:20:39;;;;;;;3.00;1.50;;;5.30;99.90;;;;;;5049321;28;20520;-57
2022/01/17 07:23:05;;;;;;;8.87;2.40;;;5.30;99.90;;;;;;5047643;28;20504;-57
2022/01/17 07:25:32;;;;;;;5.50;2.03;;;5.30;99.90;;;;;;5046265;28;20569;-57
2022/01/17 07:28:00;;;;;;;8.23;2.00;;;5.40;99.90;;;;;;5035734;28;20572;-57
2022/01/17 07:30:28;;;;;;;7.80;2.63;;;5.40;99.90;;;;;;5048204;28;20524;-57
2022/01/17 07:32:55;;;;;;;8.17;1.63;;;5.40;99.90;;;;;;5045808;28;20466;-57
2022/01/17 07:35:21;;;;;;;6.80;2.53;;;5.40;99.90;;;;;;5046757;28;20497;-56
2022/01/17 07:37:48;;;;;;;9.63;2.20;;;5.40;99.90;;;;;;5049588;28;21140;-57
2022/01/17 07:40:15;;;;;;;9.47;2.13;;;5.40;99.90;;;;;;5050252;28;20556;-57
2022/01/17 07:42:41;;;;;;;1.67;1.40;;;5.40;99.90;;;;;;5043872;28;20465;-57
2022/01/17 07:45:13;;;;;;;4.27;1.30;;;5.50;99.90;;;;;;5043851;28;20541;-57
2022/01/17 07:47:44;;;;;;;2.40;1.60;;;5.50;99.90;;;;;;5042591;28;20576;-57
2022/01/17 07:50:14;;;;;;;4.10;1.80;;;5.50;99.90;;;;;;5041879;28;20488;-56
2022/01/17 07:52:40;;;;;;;5.77;1.97;;;5.50;99.90;;;;;;5046414;28;20466;-57
2022/01/17 07:55:07;;;;;;;7.10;2.10;;;5.50;99.90;;;;;;5044541;28;20488;-57
2022/01/17 07:57:34;;;;;;;5.70;1.93;;;5.50;99.90;;;;;;5044254;28;20490;-57
2022/01/17 08:00:00;;;;;;;3.97;1.90;;;5.50;99.90;;;;;;5047062;28;21009;-56
2022/01/17 08:02:28;;;;;;;3.07;1.80;;;5.50;99.90;;;;;;5049160;28;20923;-57
2022/01/17 08:04:55;;;;;;;8.20;2.00;;;5.50;99.90;;;;;;5047071;28;20462;-57
2022/01/17 08:07:21;;;;;;;3.87;1.77;;;5.50;99.90;;;;;;5046735;28;20557;-57
2022/01/17 08:09:48;;;;;;;5.53;1.77;;;5.50;99.90;;;;;;5044751;28;20532;-57
2022/01/17 08:12:14;;;;;;;3.80;1.77;;;5.50;99.90;;;;;;5049855;28;20446;-57
2022/01/17 08:14:41;;;;;;;2.90;1.40;;;5.50;99.90;;;;;;5054188;28;20484;-57
2022/01/17 08:17:08;;;;;;;2.60;1.43;;;5.60;99.90;;;;;;5036976;28;20466;-57
2022/01/17 08:19:36;;;;;;;7.13;2.37;;;5.60;99.90;;;;;;5033593;28;20467;-58
2022/01/17 08:22:04;;;;;;;4.63;1.93;;;5.50;99.90;;;;;;5035378;28;20499;-56
2022/01/17 08:24:32;;;;;;;2.83;1.20;;;5.50;99.90;;;;;;5051004;28;20482;-57
2022/01/17 08:26:58;;;;;;;2.70;1.27;;;5.60;99.90;;;;;;5045218;28;20516;-57
2022/01/17 08:29:26;;;;;;;2.57;1.30;;;5.60;99.90;;;;;;5053172;28;20879;-57
2022/01/17 08:31:53;;;;;;;3.00;1.20;;;5.60;99.90;;;;;;5043364;28;20461;-57
2022/01/17 08:34:20;;;;;;;2.77;1.73;;;5.60;99.90;;;;;;5053398;28;20871;-57
2022/01/17 08:36:48;;;;;;;2.00;1.03;;;5.60;99.90;;;;;;5053610;28;20501;-57
2022/01/17 08:39:15;;;;;;;3.10;1.70;;;5.60;96.60;;;;;;5052347;28;20474;-57
2022/01/17 08:41:43;;;;;;;1.97;1.23;;;5.60;99.90;;;;;;5053516;28;20449;-57
2022/01/17 08:44:10;;;;;;;1.40;1.23;;;5.70;98.70;;;;;;5053075;28;20458;-57
2022/01/17 08:46:37;;;;;;;5.07;1.17;;;5.70;99.90;;;;;;5052776;28;20488;-57
2022/01/17 08:49:04;;;;;;;3.63;1.43;;;5.70;99.90;;;;;;5052606;28;20470;-57
2022/01/17 08:51:30;;;;;;;4.27;1.17;;;5.70;99.90;;;;;;5053550;28;20701;-57
2022/01/17 08:53:58;;;;;;;2.70;1.20;;;5.80;99.90;;;;;;5042710;28;20505;-57
2022/01/17 08:56:27;;;;;;;4.00;1.20;;;5.80;99.90;;;;;;5052487;28;20927;-57
2022/01/17 08:58:54;;;;;;;3.83;1.00;;;5.80;99.90;;;;;;5051584;28;20504;-57
2022/01/17 09:01:22;;;;;;;1.53;1.03;;;5.80;99.90;;;;;;5052067;28;20458;-57
2022/01/17 09:03:49;;;;;;;2.23;1.20;;;5.80;99.90;;;;;;5052976;28;20540;-57
2022/01/17 09:06:16;;;;;;;3.70;1.10;;;5.90;99.90;;;;;;5052734;28;20501;-57
2022/01/17 09:08:42;;;;;;;2.83;1.40;;;5.80;99.90;;;;;;5051180;28;20477;-56
2022/01/17 09:11:11;;;;;;;5.30;1.47;;;5.80;86.60;;;;;;5052621;28;20482;-56
2022/01/17 09:13:38;;;;;;;2.40;0.93;;;5.80;73.90;;;;;;5048922;28;20525;-57
2022/01/17 09:16:05;;;;;;;4.77;1.23;;;5.80;68.60;;;;;;5040023;28;20516;-57
2022/01/17 09:18:31;;;;;;;1.10;1.00;;;5.70;61.70;;;;;;5051658;28;20482;-56
2022/01/17 09:20:58;;;;;;;1.43;1.33;;;5.80;59.50;;;;;;5051128;28;21007;-56
2022/01/17 09:23:26;;;;;;;3.07;1.10;;;5.80;47.10;;;;;;5049479;28;20457;-57
2022/01/17 09:25:52;;;;;;;3.67;1.17;;;5.70;44.90;;;;;;5051493;28;20450;-57
2022/01/17 09:28:21;;;;;;;3.23;1.07;;;5.80;41.70;;;;;;5051040;28;20504;-56
2022/01/17 09:30:47;;;;;;;1.87;1.03;;;5.80;69.50;;;;;;5051459;28;20488;-56
2022/01/17 09:33:14;;;;;;;0.70;0.53;;;5.70;95.00;;;;;;5052366;28;20488;-55
2022/01/17 09:35:41;;;;;;;0.70;0.70;;;5.70;99.90;;;;;;5051894;28;20485;-56
2022/01/17 09:38:07;;;;;;;1.27;0.80;;;5.70;99.90;;;;;;5051198;28;20839;-56
2022/01/17 09:40:34;;;;;;;6.37;1.63;;;5.70;99.90;;;;;;5050133;28;20481;-57
2022/01/17 09:43:02;;;;;;;3.30;1.67;;;5.60;99.90;;;;;;5045838;28;20504;-56
2022/01/17 09:45:30;;;;;;;1.63;1.00;;;5.60;99.90;;;;;;5052182;28;20784;-56
2022/01/17 09:47:57;;;;;;;2.33;1.20;;;5.60;20.50;;;;;;5051739;28;20484;-57
2022/01/17 09:50:33;;;;;;;5.00;1.97;;;5.50;26.60;;;;;;5044418;28;20478;-56
2022/01/17 09:53:01;;;;;;;4.87;1.73;;;5.50;29.80;;;;;;5047187;28;20536;-56
2022/01/17 09:55:30;;;;;;;2.77;1.53;;;5.60;30.40;;;;;;5051099;28;20477;-56
2022/01/17 09:58:02;;;;;;;2.03;1.17;;;5.60;99.90;;;;;;5050223;28;20501;-57
2022/01/17 10:00:33;;;;;;;6.00;1.80;;;5.60;29.20;;;;;;5061708;28;20483;-57
2022/01/17 10:03:06;;;;;;;5.43;1.90;;;5.60;29.00;;;;;;5053545;28;20481;-55
2022/01/17 10:05:34;;;;;;;5.17;1.40;;;5.60;27.00;;;;;;5051361;28;20533;-54
2022/01/17 10:08:04;;;;;;;3.03;1.50;;;5.70;25.50;;;;;;5051106;28;20866;-56
2022/01/17 10:10:40;;;;;;;8.00;3.80;;;5.70;35.40;;;;;;5051011;28;20540;-56
2022/01/17 10:13:09;;;;;;;6.43;2.30;;;5.70;56.70;;;;;;5051089;28;20454;-56
2022/01/17 10:15:46;;;;;;;4.30;1.67;;;5.80;53.10;;;;;;5051630;28;20450;-57
2022/01/17 10:18:40;;;;;;;4.77;2.43;;;5.80;85.00;;;;;;5051294;28;20499;-56
2022/01/17 10:21:12;;;;;;;15.13;3.73;;;5.90;99.90;;;;;;5045564;28;20507;-57
2022/01/17 10:24:09;;;;;;;7.23;2.10;;;5.90;99.90;;;;;;5047546;28;20457;-57
2022/01/17 10:27:02;;;;;;;5.03;2.00;;;5.90;99.90;;;;;;5049071;28;20474;-56
2022/01/17 10:35:14;;;;;;;5.77;2.63;;;5.90;99.90;;;;;;5051197;28;20541;-56
2022/01/17 10:37:40;;;;;;;6.57;2.33;;;5.90;99.90;;;;;;5050841;28;20493;-57
2022/01/17 10:40:10;;;;;;;5.00;1.90;;;5.90;95.50;;;;;;5051402;28;20502;-57
2022/01/17 10:42:41;;;;;;;3.83;1.80;;;5.70;57.30;;;;;;5050805;28;20450;-57
2022/01/17 10:45:10;;;;;;;5.67;2.07;;;5.60;99.90;;;;;;5051222;28;20446;-56
2022/01/17 10:47:43;;;;;;;5.57;1.90;;;5.50;99.90;;;;;;5050597;28;20498;-56
2022/01/17 10:50:12;;;;;;;5.30;2.10;;;5.50;99.90;;;;;;5051379;28;20572;-56
2022/01/17 10:52:42;;;;;;;6.63;2.20;;;5.50;30.30;;;;;;5049366;28;20944;-56
2022/01/17 10:55:12;;;;;;;5.00;2.17;;;5.60;34.50;;;;;;5050827;28;20446;-56
2022/01/17 10:57:41;;;;;;;7.53;2.70;;;5.70;99.90;;;;;;5053667;23;20518;-52
2022/01/17 11:00:11;;;;;;;4.80;1.43;;;5.90;99.90;;;;;;5024127;28;20541;-52
2022/01/17 11:02:40;;;;;;;6.33;1.83;;;5.70;64.00;;;;;;5011749;28;20475;-52
2022/01/17 11:05:09;;;;;;;6.10;1.60;;;5.00;36.00;;;;;;5011639;28;20506;-52
2022/01/17 11:07:47;;;;;;;2.57;1.60;;;4.20;23.60;;;;;;5008237;28;20475;-52
2022/01/17 11:10:16;;;;;;;9.03;2.40;;;4.10;99.90;;;;;;5011169;28;20483;-53
2022/01/17 11:12:43;;;;;;;3.90;1.60;;;4.00;99.90;;;;;;5010770;28;20476;-51
2022/01/17 11:15:12;;;;;;;8.87;1.97;;;3.80;99.90;;;;;;5009158;28;20506;-52
2022/01/17 11:17:49;;;;;;;4.33;1.60;;;3.60;99.90;;;;;;5011083;28;20467;-52
2022/01/17 11:20:17;;;;;;;5.53;1.83;;;3.30;99.90;;;;;;5011292;28;20447;-53
2022/01/17 11:22:45;;;;;;;7.10;2.30;;;3.30;99.90;;;;;;5010508;28;20484;-52
2022/01/17 11:25:17;;;;;;;3.63;2.00;;;3.30;99.90;;;;;;5010844;28;20475;-52
2022/01/17 11:27:45;;;;;;;5.20;2.20;;;3.10;99.90;;;;;;5010687;28;20475;-52
2022/01/17 11:30:12;;;;;;;3.80;2.00;;;2.90;99.90;;;;;;5011359;28;20486;-52
2022/01/17 11:32:40;;;;;;;6.50;2.30;;;3.00;99.30;;;;;;5014587;28;20510;-52
2022/01/17 11:35:08;;;;;;;4.97;2.90;;;3.00;82.70;;;;;;5010063;28;20861;-51
2022/01/17 11:37:38;;;;;;;9.30;3.80;;;3.00;79.30;;;;;;5014059;28;20492;-52
2022/01/17 11:40:06;;;;;;;5.37;3.53;;;2.80;99.90;;;;;;5014999;28;20451;-52
2022/01/17 11:42:40;;;;;;;6.57;2.10;;;3.00;99.90;;;;;;5012767;28;20455;-51
2022/01/17 11:45:36;;;;;;;9.30;2.40;;;2.90;99.90;;;;;;5014047;28;20521;-53
2022/01/17 11:48:16;;;;;;;6.60;1.80;;;3.10;99.90;;;;;;5009713;28;20459;-52
2022/01/17 11:50:45;;;;;;;7.20;2.40;;;3.10;99.90;;;;;;5014366;28;20521;-51
2022/01/17 11:53:50;;;;;;;4.70;2.20;;;3.20;99.90;;;;;;5013742;28;20464;-53
2022/01/17 11:56:42;;;;;;;7.17;2.17;;;3.30;99.90;;;;;;5008829;28;20984;-53
2022/01/17 11:59:39;;;;;;;4.70;2.53;;;3.30;87.00;;;;;;5012788;28;20549;-52
2022/01/17 12:02:29;;;;;;;7.13;2.10;;;3.30;26.10;;;;;;5008240;28;20466;-51
2022/01/17 12:05:44;;;;;;;7.97;2.40;;;3.30;22.80;;;;;;5013003;28;20452;-54
2022/01/17 12:08:16;;;;;;;5.10;2.30;;;3.40;82.40;;;;;;5013328;28;20523;-51
2022/01/17 12:10:46;;;;;;;3.17;1.53;;;3.50;71.50;;;;;;5013998;28;20467;-53
2022/01/17 12:13:39;;;;;;;4.63;2.20;;;3.40;99.90;;;;;;5013544;28;20502;-52
2022/01/17 12:16:28;;;;;;;5.30;1.70;;;3.60;99.90;;;;;;5013692;28;20476;-53
2022/01/17 12:19:07;;;;;;;7.33;1.70;;;3.70;99.90;;;;;;5012120;28;20921;-53
2022/01/17 12:21:35;;;;;;;3.23;1.90;;;3.70;99.90;;;;;;5014104;28;20468;-52
2022/01/17 12:24:32;;;;;;;1.87;1.53;;;3.80;99.90;;;;;;5013181;28;20806;-51
2022/01/17 12:27:15;;;;;;;5.63;2.60;;;3.80;99.90;;;;;;5000735;28;20503;-53
2022/01/17 12:29:46;;;;;;;6.23;2.20;;;3.80;99.90;;;;;;5011182;28;20542;-52
2022/01/17 12:32:47;;;;;;;4.70;1.80;;;3.80;99.90;;;;;;5013874;28;20578;-51
2022/01/17 12:35:17;;;;;;;6.70;2.47;;;3.90;99.90;;;;;;5009256;28;20531;-51
2022/01/17 12:37:46;;;;;;;6.70;2.80;;;3.90;99.90;;;;;;5013293;28;20463;-52
2022/01/17 12:40:18;;;;;;;3.73;1.90;;;3.90;99.90;;;;;;5014334;28;20455;-52
2022/01/17 12:42:53;;;;;;;3.77;1.50;;;3.90;99.90;;;;;;5012617;28;20459;-51
2022/01/17 12:45:22;;;;;;;6.57;2.10;;;3.90;99.90;;;;;;5013303;28;20851;-52
2022/01/17 12:47:50;;;;;;;7.43;1.83;;;4.00;99.90;;;;;;5013175;28;20993;-53
2022/01/17 12:50:18;;;;;;;9.70;1.63;;;3.90;99.90;;;;;;5013353;28;20482;-52
2022/01/17 12:52:45;;;;;;;4.43;1.93;;;3.90;99.90;;;;;;5012511;28;20479;-52
2022/01/17 12:55:12;;;;;;;4.20;2.00;;;3.90;99.90;;;;;;5013318;28;20480;-50
2022/01/17 12:57:42;;;;;;;6.33;2.37;;;3.90;99.90;;;;;;5011653;28;21072;-51
2022/01/17 13:00:11;;;;;;;6.93;2.63;;;3.90;99.90;;;;;;5012206;28;20848;-52
2022/01/17 13:02:46;;;;;;;7.00;2.07;;;4.40;84.50;;;;;;5012376;28;20444;-53
2022/01/17 13:05:13;;;;;;;9.70;2.53;;;4.30;87.70;;;;;;5012949;28;20521;-53
2022/01/17 13:07:41;;;;;;;7.13;2.30;;;4.10;99.90;;;;;;5012186;28;20474;-51
2022/01/17 13:10:09;;;;;;;5.03;1.80;;;4.60;31.80;;;;;;5011622;28;20780;-52
2022/01/17 13:12:36;;;;;;;7.23;2.23;;;4.90;34.80;;;;;;5012556;28;20545;-50
2022/01/17 13:15:04;;;;;;;6.33;2.30;;;4.80;35.50;;;;;;5011550;28;20498;-51
2022/01/17 13:17:33;;;;;;;3.43;1.70;;;5.00;41.70;;;;;;5012184;28;21027;-52